Wollongong Airport, New South Wales

4:32 PM AEST on May 07, 2015 (GMT +1000)
Oak Flats, 1km East from A/Port (Steve Benko ,VK2TSB Site) | | Change Station
CLOSE
Current Station
Personal Weather Station
Location: Oak Flats, NEW SOUTH WALES
Elevation: 23 ft
Nearby Weather Stations

Elev 23 ft 34.56 °S, 150.79 °E | Updated 27 minutes ago

Clear
Clear
62.4 °F
Feels Like 62.4 °F
N
20.7
Wind Variable Wind from West
Gusts 20.7 mph

Today
High -- | Low -- °F
--% Chance of Precip.
Yesterday
High -- | Low -- °F
Precip. -- in
6:36 AM 5:09 PM
Waning Gibbous, 90% visible
Pressure 29.98 in
Visibility -9999.0 miles
Clouds
Dew Point 39 °F
Humidity 42%
Rainfall in
Snow Depth Not available.
UV 0.8 out of 12
Pollen Not available.
Air Quality Not available.
Flu Activity Not available.
SPECI YSNW 070613Z 28019G29KT CAVOK 15/01 Q1015 FM0613 MOD TURB BLW 5000FT

More Conditions Fewer Conditions

Pressure 29.98 in
Visibility -9999.0 miles
Clouds
Dew Point 39 °F
Humidity 42%
Rainfall in
Snow Depth Not available.
UV 0.8 out of 12
Pollen Not available.
Air Quality Not available.
Flu Activity Not available.
SPECI YSNW 070613Z 28019G29KT CAVOK 15/01 Q1015 FM0613 MOD TURB BLW 5000FT

More Conditions Fewer Conditions

10-Day Weather Forecast

Almanac

Astronomy

May. 07, 2015 Rise Set
Actual Time
Civil Twilight
Nautical Twilight
Astronomical Twilight
Moon
Length of Visible Light
Length of Day
Tomorrow will be .
, % of the Moon is Illuminated

Today's Extremes

Country Highs Country Lows

Community

WunderPhotos

Upload Photos

1,819,126 photos uploaded!

WunderBlogs® & News

Nearby

Air Quality

  Air Quality AQ Index Pollutant
Not available.

Snow Depth

Station Depth Elevation

Earthquake Activity

City Distance Mag. Time & Date
Minimum magnitude displayed is 2.5.

Coastal Water Temperatures

Place Temperature

Stations

Nearby Weather Stations

Station Location Temp. Windchill Dew Point Humidity Wind Precip. Elev Updated Type